Mangaratiba, Brazil
Current Conditions -  °F | °C
As of 7:00 PM on Friday 28 Nov 2014 (Local Time) from SBSC Reporting Station
Broken Clouds Broken Clouds  
Wind Chill: 75°   Ceiling: 1500
Heat Index: 75°   Visibility: 6mi
Dew Point: 66°   Wind: 9mph
Humidity: 73%   Direction: 200°SSW
Pressure: 29.94"   Gusts: NA
Location:  22.96°S, 44.04°W
Report Text: SBSC 282100Z 20008KT 9000 BKN015 BKN080 24/19 Q1014
Loading
Personal Weather Stations






























Interactive Weather Map New forecast layout! Learn more

10-Day Weather Forecast

Advertisements
Track Severe Weather on mobile